Time;durP1;ratioP1;P1;durP2;ratioP2;P2;SDS_P1;SDS_P2;PMS_P1;PMS_P2;Temp;Humidity;BMP_temperature;BMP_pressure;BME280_temperature;BME280_humidity;BME280_pressure;Samples;Min_cycle;Max_cycle;Signal;HPM_P1;HPM_P2
2021/01/25 00:02:03;;;;;;;35.28;16.35;;;0.90;91.20;;;;;;4962902;28;20069;-56
2021/01/25 00:04:29;;;;;;;27.63;15.73;;;0.80;91.10;;;;;;4955131;28;20042;-56
2021/01/25 00:06:54;;;;;;;29.15;16.42;;;0.80;91.10;;;;;;4951674;28;20043;-56
2021/01/25 00:09:20;;;;;;;27.35;16.17;;;0.80;91.20;;;;;;4958414;28;20076;-57
2021/01/25 00:11:45;;;;;;;25.50;15.18;;;0.80;91.10;;;;;;4952496;28;20044;-56
2021/01/25 00:14:11;;;;;;;25.35;15.38;;;0.80;91.10;;;;;;4958488;28;20101;-57
2021/01/25 00:16:37;;;;;;;29.00;16.15;;;0.70;91.00;;;;;;4955712;28;21314;-57
2021/01/25 00:19:03;;;;;;;27.17;15.80;;;0.70;91.10;;;;;;4955008;28;20046;-57
2021/01/25 00:21:28;;;;;;;29.02;15.40;;;0.70;91.10;;;;;;4953890;28;20047;-56
2021/01/25 00:23:54;;;;;;;28.13;15.25;;;0.70;91.10;;;;;;4952637;28;20074;-53
2021/01/25 00:26:19;;;;;;;23.23;14.05;;;0.70;91.00;;;;;;4956662;28;20039;-54
2021/01/25 00:28:45;;;;;;;27.42;14.38;;;0.60;91.00;;;;;;4963633;28;20050;-53
2021/01/25 00:31:11;;;;;;;25.00;14.80;;;0.60;91.10;;;;;;4959734;28;20051;-52
2021/01/25 00:33:36;;;;;;;29.20;14.75;;;0.50;91.20;;;;;;4956359;28;20118;-54
2021/01/25 00:36:02;;;;;;;27.20;15.80;;;0.50;91.10;;;;;;4967205;28;20038;-56
2021/01/25 00:38:28;;;;;;;26.02;14.38;;;0.50;91.10;;;;;;4949803;28;20396;-53
2021/01/25 00:40:54;;;;;;;26.27;15.88;;;0.40;91.10;;;;;;4961284;28;20059;-54
2021/01/25 00:43:20;;;;;;;24.48;15.00;;;0.40;91.30;;;;;;4955249;28;20074;-55
2021/01/25 00:45:46;;;;;;;26.17;15.73;;;0.40;91.30;;;;;;4958670;28;20055;-53
2021/01/25 00:48:12;;;;;;;34.58;18.23;;;0.40;91.50;;;;;;4962701;28;20566;-55
2021/01/25 00:50:37;;;;;;;28.95;16.90;;;0.40;91.40;;;;;;4957873;28;20046;-54
2021/01/25 00:53:03;;;;;;;31.92;17.67;;;0.40;91.40;;;;;;4954897;28;20043;-54
2021/01/25 00:55:28;;;;;;;32.28;17.38;;;0.40;91.40;;;;;;4964425;28;20078;-54
2021/01/25 00:57:54;;;;;;;32.20;16.58;;;0.40;91.40;;;;;;4960954;28;20122;-52
2021/01/25 01:00:20;;;;;;;28.88;17.25;;;0.40;91.40;;;;;;4955722;28;20066;-56
2021/01/25 01:02:46;;;;;;;25.42;15.77;;;0.30;91.40;;;;;;4955118;28;20404;-57
2021/01/25 01:05:12;;;;;;;32.78;18.63;;;0.30;91.40;;;;;;4956027;28;20054;-54
2021/01/25 01:07:38;;;;;;;28.60;16.52;;;0.30;91.50;;;;;;4965125;28;20039;-52
2021/01/25 01:10:05;;;;;;;29.05;17.77;;;0.30;91.40;;;;;;4953344;28;20054;-52
2021/01/25 01:12:30;;;;;;;31.40;17.95;;;0.40;91.40;;;;;;4963028;28;20081;-55
2021/01/25 01:14:56;;;;;;;29.98;17.42;;;0.40;91.40;;;;;;4958118;28;20074;-54
2021/01/25 01:17:22;;;;;;;30.65;16.73;;;0.30;91.40;;;;;;4956223;28;20035;-51
2021/01/25 01:19:48;;;;;;;31.05;16.48;;;0.30;91.30;;;;;;4952770;28;20101;-55
2021/01/25 01:22:13;;;;;;;29.35;16.67;;;0.20;91.30;;;;;;4955377;28;20083;-55
2021/01/25 01:24:39;;;;;;;31.30;16.88;;;0.20;91.40;;;;;;4952823;28;20039;-51
2021/01/25 01:27:05;;;;;;;31.17;18.00;;;0.30;91.40;;;;;;4953162;28;20050;-52
2021/01/25 01:29:30;;;;;;;28.63;17.98;;;0.20;91.40;;;;;;4956750;28;20043;-53
2021/01/25 01:31:56;;;;;;;34.95;19.45;;;0.30;91.50;;;;;;4954596;28;20043;-54
2021/01/25 01:34:22;;;;;;;33.78;19.05;;;0.30;91.50;;;;;;4956619;28;20428;-54
2021/01/25 01:36:47;;;;;;;34.28;18.95;;;0.30;91.50;;;;;;4959690;28;20499;-52
2021/01/25 01:39:13;;;;;;;34.95;18.65;;;0.30;91.50;;;;;;4953313;28;20047;-53
2021/01/25 01:41:40;;;;;;;36.47;18.92;;;0.40;91.50;;;;;;4952174;28;20055;-53
2021/01/25 01:44:14;;;;;;;34.00;18.92;;;0.30;91.40;;;;;;4954359;28;20470;-55
2021/01/25 01:46:42;;;;;;;35.03;18.55;;;0.30;91.40;;;;;;4951920;28;20466;-52
2021/01/25 01:49:10;;;;;;;31.98;19.00;;;0.30;91.40;;;;;;4950060;28;20448;-54
2021/01/25 01:51:37;;;;;;;31.13;18.42;;;0.20;91.40;;;;;;4952055;28;20074;-52
2021/01/25 01:54:03;;;;;;;29.83;17.55;;;0.20;91.40;;;;;;4955287;28;20047;-52
2021/01/25 01:56:29;;;;;;;28.52;16.63;;;0.20;91.50;;;;;;4953798;28;20050;-54
2021/01/25 01:58:55;;;;;;;26.30;15.65;;;0.20;91.40;;;;;;4953367;28;20051;-52
2021/01/25 02:01:20;;;;;;;25.65;15.50;;;0.10;91.20;;;;;;4950774;28;20408;-52
2021/01/25 02:03:46;;;;;;;27.30;15.70;;;0.10;91.20;;;;;;4955168;28;20066;-53
2021/01/25 02:06:13;;;;;;;28.60;15.95;;;0.00;91.10;;;;;;4950560;28;20050;-50
2021/01/25 02:08:40;;;;;;;30.20;17.48;;;0.00;91.20;;;;;;4950376;28;20053;-54
2021/01/25 02:11:07;;;;;;;26.58;15.40;;;0.00;91.20;;;;;;4955579;28;20039;-50
2021/01/25 02:13:34;;;;;;;29.25;17.08;;;-0.10;91.30;;;;;;4960724;28;20408;-52
2021/01/25 02:16:01;;;;;;;28.35;16.67;;;-0.10;91.40;;;;;;4951742;28;20082;-54
2021/01/25 02:18:34;;;;;;;29.08;16.65;;;-0.10;91.40;;;;;;4953390;28;20047;-56
2021/01/25 02:20:59;;;;;;;;;;;-0.10;91.40;;;;;;4948745;28;20043;-55
2021/01/25 02:23:31;;;;;;;31.52;17.63;;;-0.10;91.40;;;;;;4955893;28;20290;-55
2021/01/25 02:26:22;;;;;;;30.08;16.88;;;-0.10;91.40;;;;;;4955104;28;20074;-56
2021/01/25 02:28:48;;;;;;;35.38;17.20;;;-0.10;91.40;;;;;;4956190;28;20039;-55
2021/01/25 02:31:15;;;;;;;31.25;17.83;;;-0.20;91.50;;;;;;4961499;28;20047;-56
2021/01/25 02:33:54;;;;;;;35.25;18.20;;;-0.20;91.50;;;;;;4961727;28;20036;-53
2021/01/25 02:36:21;;;;;;;33.33;18.13;;;-0.20;91.50;;;;;;4957598;28;20463;-55
2021/01/25 02:38:50;;;;;;;32.58;18.17;;;-0.10;91.60;;;;;;4966676;28;20046;-56
2021/01/25 02:41:22;;;;;;;30.30;17.90;;;-0.20;91.50;;;;;;4952420;28;20415;-55
2021/01/25 02:43:49;;;;;;;31.35;18.30;;;-0.10;91.60;;;;;;4951023;28;20051;-55
2021/01/25 02:46:15;;;;;;;31.45;17.67;;;-0.20;91.50;;;;;;4955709;28;20133;-57
2021/01/25 02:48:40;;;;;;;31.45;17.65;;;-0.10;91.60;;;;;;4960752;28;20098;-55
2021/01/25 02:51:06;;;;;;;33.60;18.90;;;-0.20;91.50;;;;;;4943580;29;20047;-52
2021/01/25 02:53:32;;;;;;;30.77;18.48;;;-0.20;91.50;;;;;;4961230;28;20038;-55
2021/01/25 02:56:00;;;;;;;33.42;19.65;;;-0.20;91.50;;;;;;4962544;28;20043;-53
2021/01/25 02:58:26;;;;;;;34.17;19.13;;;-0.20;91.50;;;;;;4967327;28;20049;-52
2021/01/25 03:00:52;;;;;;;35.75;18.52;;;-0.20;91.50;;;;;;4965189;28;20077;-56
2021/01/25 03:03:19;;;;;;;35.05;19.77;;;-0.20;91.60;;;;;;4957570;28;21334;-51
2021/01/25 03:05:45;;;;;;;33.78;19.65;;;-0.20;91.60;;;;;;4969162;28;20502;-54
2021/01/25 03:08:11;;;;;;;34.55;19.50;;;-0.20;91.60;;;;;;4955196;28;20554;-52
2021/01/25 03:10:37;;;;;;;38.13;21.55;;;-0.20;91.60;;;;;;4958979;28;20043;-54
2021/01/25 03:13:04;;;;;;;35.25;19.52;;;-0.20;91.60;;;;;;4954856;28;20046;-52
2021/01/25 03:15:34;;;;;;;37.08;20.30;;;-0.20;91.70;;;;;;4954910;28;20558;-55
2021/01/25 03:17:59;;;;;;;39.35;20.35;;;-0.10;91.90;;;;;;4966944;28;20086;-53
2021/01/25 03:20:25;;;;;;;31.02;19.75;;;-0.20;91.60;;;;;;4969489;28;20550;-52
2021/01/25 03:22:51;;;;;;;34.95;19.85;;;-0.20;91.60;;;;;;4967832;28;20035;-53
2021/01/25 03:25:16;;;;;;;32.10;18.85;;;-0.20;91.60;;;;;;4955780;28;20043;-53
2021/01/25 03:27:42;;;;;;;35.20;19.38;;;0.00;91.60;;;;;;4953522;28;20508;-55
2021/01/25 03:30:12;;;;;;;33.20;19.92;;;-0.20;91.60;;;;;;4958358;28;20077;-56
2021/01/25 03:32:38;;;;;;;35.28;20.02;;;-0.20;91.50;;;;;;4947674;28;20052;-54
2021/01/25 03:35:11;;;;;;;35.75;19.08;;;-0.20;91.50;;;;;;4954220;28;20514;-54
2021/01/25 03:37:38;;;;;;;33.08;19.17;;;-0.20;91.50;;;;;;4960224;28;20536;-54
2021/01/25 03:40:06;;;;;;;34.00;19.83;;;-0.30;91.40;;;;;;4956459;28;20043;-55
2021/01/25 03:42:31;;;;;;;28.02;18.30;;;-0.30;91.40;;;;;;4953106;28;20051;-56
2021/01/25 03:44:58;;;;;;;28.55;16.70;;;-0.30;91.40;;;;;;4955625;28;20042;-55
2021/01/25 03:47:24;;;;;;;29.63;17.08;;;-0.40;91.40;;;;;;4952941;28;20047;-56
2021/01/25 03:49:49;;;;;;;35.95;19.15;;;-0.40;91.50;;;;;;4958630;28;20035;-55
2021/01/25 03:52:15;;;;;;;34.83;19.05;;;-0.40;91.50;;;;;;4953127;28;20044;-55
2021/01/25 03:54:40;;;;;;;31.58;17.42;;;-0.40;91.50;;;;;;4956315;28;20094;-56
2021/01/25 03:57:06;;;;;;;30.23;17.75;;;-0.40;91.40;;;;;;4960388;28;20050;-56
2021/01/25 03:59:32;;;;;;;32.92;17.75;;;-0.50;91.40;;;;;;4954905;28;20054;-56
2021/01/25 04:01:57;;;;;;;29.80;16.25;;;-0.50;91.40;;;;;;4956188;28;20138;-56
2021/01/25 04:04:24;;;;;;;29.58;17.63;;;-0.50;91.50;;;;;;4947908;28;20055;-56
2021/01/25 04:06:49;;;;;;;33.30;19.02;;;-0.50;91.40;;;;;;4954669;28;20483;-56
2021/01/25 04:09:15;;;;;;;32.97;19.25;;;-0.60;91.50;;;;;;4949644;28;20122;-56
2021/01/25 04:11:45;;;;;;;32.95;17.40;;;-0.70;91.50;;;;;;4951977;28;20142;-56
2021/01/25 04:14:10;;;;;;;31.52;18.52;;;-0.70;91.50;;;;;;4953165;28;20047;-56
2021/01/25 04:16:36;;;;;;;32.65;18.38;;;-0.70;91.50;;;;;;4951384;28;20050;-56
2021/01/25 04:19:03;;;;;;;32.10;18.15;;;-0.70;91.50;;;;;;4952835;28;20043;-56
2021/01/25 04:21:29;;;;;;;31.20;17.90;;;-0.70;91.60;;;;;;4954007;28;20039;-57
2021/01/25 04:23:56;;;;;;;34.42;19.02;;;-0.70;91.60;;;;;;4953540;28;20519;-57
2021/01/25 04:26:21;;;;;;;31.35;19.23;;;-0.70;91.40;;;;;;4958013;28;20118;-56
2021/01/25 04:28:47;;;;;;;32.03;19.45;;;-0.70;91.50;;;;;;4958405;28;20134;-56
2021/01/25 04:31:13;;;;;;;34.05;18.90;;;-0.70;91.50;;;;;;4954943;28;20087;-54
2021/01/25 04:33:39;;;;;;;38.38;20.30;;;-0.70;91.50;;;;;;4951251;28;20047;-56
2021/01/25 04:36:05;;;;;;;36.72;20.52;;;-0.70;91.40;;;;;;4954515;28;20415;-56
2021/01/25 04:38:31;;;;;;;40.25;20.73;;;-0.80;91.40;;;;;;4956477;28;20488;-56
2021/01/25 04:40:58;;;;;;;39.15;20.80;;;-0.80;91.40;;;;;;4952328;28;20144;-55
2021/01/25 04:43:25;;;;;;;35.92;21.48;;;-0.90;91.50;;;;;;4952452;28;20046;-56
2021/01/25 04:45:53;;;;;;;37.00;20.85;;;-0.90;91.50;;;;;;4949740;28;20102;-52
2021/01/25 04:48:19;;;;;;;35.78;20.13;;;-0.80;91.70;;;;;;4957297;28;20047;-56
2021/01/25 04:50:47;;;;;;;35.83;19.80;;;-0.80;91.40;;;;;;4958109;28;20469;-55
2021/01/25 04:53:14;;;;;;;35.47;20.30;;;-0.80;91.30;;;;;;4959284;28;20134;-55
2021/01/25 04:55:40;;;;;;;37.05;20.20;;;-0.90;91.30;;;;;;4958708;28;20043;-55
2021/01/25 04:58:07;;;;;;;34.58;19.00;;;-0.90;91.30;;;;;;4955245;28;20050;-54
2021/01/25 05:00:32;;;;;;;35.10;19.35;;;-1.00;91.20;;;;;;4957734;28;20376;-55
2021/01/25 05:02:58;;;;;;;31.17;19.33;;;-1.00;91.20;;;;;;4956156;28;20122;-56
2021/01/25 05:05:24;;;;;;;35.13;20.73;;;-1.10;91.20;;;;;;4952899;28;20122;-54
2021/01/25 05:07:50;;;;;;;33.38;19.17;;;-1.10;91.20;;;;;;4962009;28;20049;-54
2021/01/25 05:10:15;;;;;;;34.67;20.40;;;-1.10;91.20;;;;;;4953544;28;20047;-54
2021/01/25 05:12:51;;;;;;;34.28;20.27;;;-1.10;91.20;;;;;;4960269;28;20050;-55
2021/01/25 05:15:46;;;;;;;41.17;21.70;;;-1.00;91.20;;;;;;4953695;28;20042;-55
2021/01/25 05:18:13;;;;;;;35.10;20.23;;;-1.00;91.10;;;;;;4959025;28;20042;-54
2021/01/25 05:20:38;;;;;;;39.28;21.05;;;-1.00;91.10;;;;;;4957607;28;20039;-55
2021/01/25 05:23:15;;;;;;;41.65;21.63;;;-1.10;91.20;;;;;;4964472;28;20038;-55
2021/01/25 05:25:41;;;;;;;37.75;20.90;;;-1.10;91.20;;;;;;4943354;28;20495;-54
2021/01/25 05:28:19;;;;;;;35.25;20.50;;;-1.10;91.20;;;;;;4953446;28;20435;-53
2021/01/25 05:30:45;;;;;;;35.03;19.17;;;-1.10;91.10;;;;;;4950599;28;20042;-55
2021/01/25 05:33:11;;;;;;;37.70;20.67;;;-1.10;91.10;;;;;;4956345;28;20042;-53
2021/01/25 05:35:37;;;;;;;33.05;19.25;;;-1.20;91.10;;;;;;4956325;28;20043;-54
2021/01/25 05:38:06;;;;;;;32.55;18.83;;;-1.10;91.10;;;;;;4951418;28;20058;-55
2021/01/25 05:40:34;;;;;;;30.05;18.50;;;-1.20;90.90;;;;;;4953407;28;20047;-54
2021/01/25 05:43:00;;;;;;;33.38;18.05;;;-1.30;91.00;;;;;;4958076;28;20353;-52
2021/01/25 05:45:30;;;;;;;33.40;18.08;;;-1.30;91.00;;;;;;4953571;28;20031;-55
2021/01/25 05:47:57;;;;;;;28.92;16.58;;;-1.40;90.90;;;;;;4950903;28;20475;-54
2021/01/25 05:50:32;;;;;;;30.02;17.48;;;-1.40;91.00;;;;;;4948986;28;20039;-54
2021/01/25 05:53:00;;;;;;;31.98;16.85;;;-1.40;91.00;;;;;;4954580;28;20047;-55
2021/01/25 05:55:27;;;;;;;31.13;18.10;;;-1.50;91.00;;;;;;4949582;28;20061;-55
2021/01/25 05:57:53;;;;;;;31.00;18.33;;;-1.50;91.10;;;;;;4952901;28;20126;-55
2021/01/25 06:00:20;;;;;;;29.30;16.38;;;-1.60;91.10;;;;;;4954559;28;20198;-55
2021/01/25 06:02:47;;;;;;;31.10;17.05;;;-1.60;91.00;;;;;;4960448;28;20583;-54
2021/01/25 06:05:41;;;;;;;32.63;17.35;;;-1.60;91.00;;;;;;4959541;28;20491;-54
2021/01/25 06:08:11;;;;;;;32.13;19.02;;;-1.70;91.00;;;;;;4955630;28;20047;-55
2021/01/25 06:10:58;;;;;;;33.70;18.63;;;-1.70;91.10;;;;;;4955803;28;20493;-54
2021/01/25 06:13:29;;;;;;;32.53;18.50;;;-1.70;91.10;;;;;;4953377;28;20091;-54
2021/01/25 06:15:57;;;;;;;37.83;19.05;;;-1.70;91.20;;;;;;4959334;28;20039;-54
2021/01/25 06:18:23;;;;;;;33.90;19.45;;;-1.60;91.20;;;;;;4952379;28;20150;-54
2021/01/25 06:20:51;;;;;;;35.22;20.67;;;-1.70;91.10;;;;;;4952751;28;20130;-52
2021/01/25 06:23:17;;;;;;;35.30;19.67;;;-1.70;91.20;;;;;;4956424;28;20507;-51
2021/01/25 06:25:44;;;;;;;35.40;19.23;;;-1.70;91.10;;;;;;4955434;28;20054;-55
2021/01/25 06:28:14;;;;;;;35.90;20.55;;;-1.70;91.10;;;;;;4931692;28;20320;-54
2021/01/25 06:30:43;;;;;;;40.63;19.40;;;-1.80;91.10;;;;;;4930291;28;20050;-55
2021/01/25 06:33:14;;;;;;;38.45;20.40;;;-1.70;91.20;;;;;;4937799;28;20059;-52
2021/01/25 06:35:39;;;;;;;39.10;20.27;;;-1.70;91.20;;;;;;4952214;28;20039;-52
2021/01/25 06:38:13;;;;;;;36.10;20.05;;;-1.70;91.20;;;;;;4947575;28;20043;-54
2021/01/25 06:40:42;;;;;;;39.53;21.00;;;-1.70;91.10;;;;;;4956963;28;20048;-54
2021/01/25 06:43:09;;;;;;;37.13;20.75;;;-1.70;91.00;;;;;;4949974;28;20039;-54
2021/01/25 06:45:35;;;;;;;38.03;20.42;;;-1.80;91.00;;;;;;4956199;28;20077;-53
2021/01/25 06:48:01;;;;;;;37.90;20.52;;;-1.80;91.00;;;;;;4950866;28;20071;-52
2021/01/25 06:50:27;;;;;;;36.95;20.13;;;-1.80;91.00;;;;;;4956290;28;20459;-53
2021/01/25 06:52:53;;;;;;;34.83;19.73;;;-1.80;91.00;;;;;;4956634;28;20110;-52
2021/01/25 06:55:18;;;;;;;35.20;20.08;;;-1.80;91.10;;;;;;4955186;28;20047;-53
2021/01/25 06:57:46;;;;;;;37.92;21.52;;;-1.80;91.10;;;;;;4948198;28;20046;-50
2021/01/25 07:00:19;;;;;;;35.58;20.77;;;-1.80;91.10;;;;;;4955923;28;20051;-54
2021/01/25 07:02:58;;;;;;;39.83;21.60;;;-1.80;91.20;;;;;;4954220;28;20043;-50
2021/01/25 07:05:31;;;;;;;37.10;21.65;;;-1.80;91.20;;;;;;4951810;28;20049;-56
2021/01/25 07:08:17;;;;;;;33.35;18.98;;;-1.80;91.10;;;;;;4955403;28;20428;-51
2021/01/25 07:10:56;;;;;;;41.15;20.85;;;-1.90;91.00;;;;;;4950678;28;20049;-52
2021/01/25 07:13:23;;;;;;;34.17;20.20;;;-1.90;91.00;;;;;;4948369;28;20087;-55
2021/01/25 07:15:50;;;;;;;32.13;18.42;;;-1.90;91.10;;;;;;4955980;28;20043;-52
2021/01/25 07:18:15;;;;;;;38.28;19.50;;;-1.90;91.00;;;;;;4964569;28;20047;-52
2021/01/25 07:20:46;;;;;;;37.08;20.08;;;-1.90;91.00;;;;;;4965948;28;20419;-53
2021/01/25 07:23:15;;;;;;;37.80;19.60;;;-2.00;91.10;;;;;;4955306;28;20058;-53
2021/01/25 07:25:44;;;;;;;39.10;20.15;;;-2.00;91.10;;;;;;4962619;28;20043;-52
2021/01/25 07:28:10;;;;;;;37.50;19.90;;;-2.00;91.10;;;;;;4955253;28;20047;-50
2021/01/25 07:30:35;;;;;;;40.72;20.63;;;-2.00;91.20;;;;;;4957754;28;20049;-50
2021/01/25 07:33:04;;;;;;;84.60;23.33;;;-2.10;91.00;;;;;;4958559;28;20114;-52
2021/01/25 07:35:31;;;;;;;221.15;30.38;;;-2.10;91.10;;;;;;4954251;28;20487;-52
2021/01/25 07:37:57;;;;;;;208.32;30.00;;;-2.10;91.60;;;;;;4957829;28;20043;-54
2021/01/25 07:40:23;;;;;;;252.85;30.25;;;-2.20;91.60;;;;;;4955918;28;20492;-52
2021/01/25 07:42:49;;;;;;;258.50;27.55;;;-2.10;91.60;;;;;;4954908;28;20054;-55
2021/01/25 07:45:15;;;;;;;163.75;22.88;;;-2.20;91.70;;;;;;4957959;28;20035;-54
2021/01/25 07:47:45;;;;;;;136.63;19.67;;;-2.20;91.90;;;;;;4954833;28;20134;-51
2021/01/25 07:50:12;;;;;;;91.15;18.67;;;-2.20;91.90;;;;;;4954687;28;20134;-54
2021/01/25 07:52:38;;;;;;;37.40;17.48;;;-2.30;91.80;;;;;;4956188;28;20039;-52
2021/01/25 07:55:14;;;;;;;84.20;17.45;;;-2.30;91.80;;;;;;4956518;28;20409;-54
2021/01/25 07:57:41;;;;;;;30.42;16.30;;;-2.30;91.90;;;;;;4953958;28;20463;-54
2021/01/25 08:00:34;;;;;;;72.65;18.23;;;-2.30;92.00;;;;;;4957208;28;20050;-53
2021/01/25 08:03:22;;;;;;;47.65;17.52;;;-2.30;92.00;;;;;;4950703;28;20440;-54
2021/01/25 08:05:56;;;;;;;41.30;19.23;;;-2.30;92.00;;;;;;4953191;28;20051;-52
2021/01/25 08:08:23;;;;;;;144.18;23.77;;;-2.30;92.00;;;;;;4953773;28;20035;-54
2021/01/25 08:10:49;;;;;;;97.95;21.88;;;-2.20;92.10;;;;;;4955077;28;20047;-51
2021/01/25 08:13:16;;;;;;;66.57;20.48;;;-2.20;92.40;;;;;;4954575;28;20488;-53
2021/01/25 08:15:57;;;;;;;127.35;21.23;;;-2.20;92.20;;;;;;4954603;28;20055;-51
2021/01/25 08:18:37;;;;;;;52.38;19.85;;;-2.10;92.20;;;;;;4956693;28;20039;-50
2021/01/25 08:21:04;;;;;;;184.07;24.55;;;-2.10;92.10;;;;;;4959356;28;20043;-55
2021/01/25 08:23:36;;;;;;;211.52;24.65;;;-2.00;92.20;;;;;;4956572;28;20150;-54
2021/01/25 08:26:02;;;;;;;151.95;23.80;;;-2.00;92.30;;;;;;4954265;28;20044;-54
2021/01/25 08:28:40;;;;;;;200.18;25.00;;;-2.00;92.20;;;;;;4952605;28;20047;-53
2021/01/25 08:31:13;;;;;;;51.15;21.80;;;-2.00;92.40;;;;;;4956036;28;20130;-54
2021/01/25 08:33:42;;;;;;;65.95;22.48;;;-2.00;92.30;;;;;;4954415;28;20043;-54
2021/01/25 08:36:09;;;;;;;40.50;20.80;;;-2.00;92.40;;;;;;4954892;28;20393;-54
2021/01/25 08:38:43;;;;;;;36.47;21.00;;;-1.90;92.40;;;;;;4958400;28;20065;-55
2021/01/25 08:41:22;;;;;;;42.30;22.45;;;-1.90;92.30;;;;;;4957648;28;20047;-55
2021/01/25 08:44:15;;;;;;;39.42;22.15;;;-1.90;92.30;;;;;;4954955;28;20051;-55
2021/01/25 08:46:42;;;;;;;38.92;22.15;;;-1.80;92.40;;;;;;4954067;28;20085;-58
2021/01/25 08:49:17;;;;;;;39.88;22.40;;;-1.70;92.30;;;;;;4954267;28;20260;-55
2021/01/25 08:51:58;;;;;;;42.50;22.90;;;-1.50;92.40;;;;;;4954066;28;20104;-54
2021/01/25 08:54:31;;;;;;;43.28;23.25;;;-1.50;92.20;;;;;;4954704;28;20070;-54
2021/01/25 08:56:58;;;;;;;43.78;23.60;;;-1.40;92.10;;;;;;4957841;28;20046;-55
2021/01/25 08:59:37;;;;;;;45.17;24.40;;;-1.30;92.20;;;;;;4952183;28;20122;-52
2021/01/25 09:02:18;;;;;;;42.53;24.80;;;-1.30;92.10;;;;;;4954733;28;20043;-54
2021/01/25 09:04:43;;;;;;;45.65;24.40;;;-1.20;92.10;;;;;;4951591;28;20035;-53
2021/01/25 09:07:14;;;;;;;45.65;25.02;;;-1.10;92.10;;;;;;4954001;28;20050;-52
2021/01/25 09:09:40;;;;;;;44.97;23.90;;;-1.10;92.10;;;;;;4952395;28;21195;-55
2021/01/25 09:12:06;;;;;;;42.10;24.23;;;-1.00;92.10;;;;;;4954470;28;20500;-54
2021/01/25 09:14:33;;;;;;;45.47;26.13;;;-0.90;92.00;;;;;;4952195;28;20045;-52
2021/01/25 09:16:58;;;;;;;46.60;24.35;;;-0.90;92.10;;;;;;4952698;28;20432;-51
2021/01/25 09:19:24;;;;;;;44.92;25.40;;;-0.80;92.10;;;;;;4952401;28;20055;-52
2021/01/25 09:21:49;;;;;;;43.88;23.75;;;-0.80;92.10;;;;;;4953196;28;20130;-51
2021/01/25 09:24:15;;;;;;;39.20;23.50;;;-0.70;92.10;;;;;;4955420;28;20102;-55
2021/01/25 09:26:41;;;;;;;44.10;25.23;;;-0.70;92.00;;;;;;4952489;28;20043;-55
2021/01/25 09:29:06;;;;;;;41.30;24.17;;;-0.60;92.10;;;;;;4953697;28;20268;-55
2021/01/25 09:31:32;;;;;;;39.63;24.50;;;-0.60;92.10;;;;;;4952252;28;20071;-55
2021/01/25 09:33:58;;;;;;;40.92;24.83;;;-0.50;92.10;;;;;;4951159;28;20096;-55
2021/01/25 09:36:24;;;;;;;43.92;25.15;;;-0.50;92.20;;;;;;4951520;28;20047;-55
2021/01/25 09:38:49;;;;;;;48.03;25.98;;;-0.40;92.40;;;;;;4949001;28;20121;-54
2021/01/25 09:41:15;;;;;;;46.45;26.58;;;-0.30;92.30;;;;;;4950206;28;20047;-54
2021/01/25 09:43:41;;;;;;;51.60;29.42;;;-0.20;92.20;;;;;;4946355;28;20496;-53
2021/01/25 09:46:07;;;;;;;51.22;28.88;;;-0.10;92.20;;;;;;4947614;28;20152;-54
2021/01/25 09:48:33;;;;;;;50.88;28.90;;;0.00;92.40;;;;;;4947208;28;20398;-51
2021/01/25 09:50:58;;;;;;;55.63;29.80;;;0.10;92.20;;;;;;4948792;28;20070;-54
2021/01/25 09:53:25;;;;;;;59.10;30.20;;;0.20;92.20;;;;;;4948561;28;20051;-53
2021/01/25 09:55:50;;;;;;;51.70;29.25;;;0.30;92.10;;;;;;4952735;28;20098;-55
2021/01/25 09:58:19;;;;;;;52.63;29.58;;;0.30;92.20;;;;;;4953829;28;20066;-54
2021/01/25 10:00:45;;;;;;;50.10;28.95;;;0.40;92.20;;;;;;4956551;28;20097;-54
2021/01/25 10:03:10;;;;;;;59.00;30.33;;;0.50;92.10;;;;;;4949879;28;20082;-54
2021/01/25 10:05:36;;;;;;;51.78;28.73;;;0.60;92.00;;;;;;4948892;28;20568;-55
2021/01/25 10:08:02;;;;;;;52.08;30.20;;;0.60;92.20;;;;;;4939147;29;20035;-55
2021/01/25 10:10:28;;;;;;;53.83;29.75;;;0.70;92.20;;;;;;4951102;28;20529;-55
2021/01/25 10:12:55;;;;;;;54.58;29.95;;;0.80;92.20;;;;;;4950063;28;20126;-55
2021/01/25 10:15:21;;;;;;;54.90;30.33;;;0.90;92.20;;;;;;4949943;28;20101;-55
2021/01/25 10:17:47;;;;;;;57.65;30.83;;;1.00;92.20;;;;;;4949203;28;20095;-54
2021/01/25 10:20:13;;;;;;;50.72;29.95;;;1.10;92.10;;;;;;4951168;28;20121;-57
2021/01/25 10:22:39;;;;;;;54.28;30.95;;;1.10;92.00;;;;;;4950895;28;20455;-55
2021/01/25 10:25:07;;;;;;;52.17;29.17;;;1.10;91.90;;;;;;4951126;28;20039;-53
2021/01/25 10:27:35;;;;;;;53.28;29.73;;;1.20;92.00;;;;;;4948473;28;20044;-53
2021/01/25 10:30:01;;;;;;;46.80;28.38;;;1.20;92.00;;;;;;4955139;28;20471;-55
2021/01/25 10:32:27;;;;;;;51.83;28.38;;;1.30;92.00;;;;;;4953225;28;20067;-53
2021/01/25 10:34:53;;;;;;;56.10;29.35;;;1.30;92.10;;;;;;4951730;28;20229;-54
2021/01/25 10:37:19;;;;;;;53.20;30.80;;;1.30;92.00;;;;;;4947871;28;20047;-54
2021/01/25 10:39:46;;;;;;;49.67;28.98;;;1.40;91.90;;;;;;4953206;28;20047;-54
2021/01/25 10:42:11;;;;;;;52.50;30.00;;;1.50;92.00;;;;;;4950518;28;20447;-53
2021/01/25 10:44:37;;;;;;;52.90;29.88;;;1.50;92.10;;;;;;4948531;28;20047;-53
2021/01/25 10:47:03;;;;;;;54.80;30.75;;;1.60;92.10;;;;;;4951421;28;20048;-55
2021/01/25 10:49:28;;;;;;;54.50;30.27;;;1.70;92.00;;;;;;4948425;28;20051;-54
2021/01/25 10:51:54;;;;;;;56.45;30.05;;;1.80;92.00;;;;;;4951334;28;20315;-55
2021/01/25 10:54:25;;;;;;;58.30;30.42;;;1.80;91.90;;;;;;4955091;28;20336;-54
2021/01/25 10:56:51;;;;;;;60.75;31.33;;;1.90;92.00;;;;;;4951730;28;20043;-55
2021/01/25 10:59:17;;;;;;;53.85;31.27;;;2.00;91.90;;;;;;4950407;28;20143;-53
2021/01/25 11:01:43;;;;;;;54.35;30.77;;;2.00;92.00;;;;;;4951741;28;20066;-55
2021/01/25 11:04:08;;;;;;;60.15;31.27;;;2.10;92.00;;;;;;4945859;28;20443;-53
2021/01/25 11:06:34;;;;;;;55.35;30.88;;;2.20;92.00;;;;;;4948436;28;20047;-54
2021/01/25 11:08:59;;;;;;;49.47;28.75;;;2.20;91.90;;;;;;4949793;28;20815;-52
2021/01/25 11:11:25;;;;;;;57.35;31.23;;;2.30;91.90;;;;;;4956173;28;20043;-55
2021/01/25 11:13:51;;;;;;;54.03;30.67;;;2.30;91.80;;;;;;4944423;28;20381;-53
2021/01/25 11:16:16;;;;;;;56.53;30.63;;;2.40;91.80;;;;;;4947041;28;20082;-53
2021/01/25 11:18:42;;;;;;;52.53;28.80;;;2.50;91.80;;;;;;4945923;28;20040;-51
2021/01/25 11:21:08;;;;;;;50.72;29.35;;;2.50;91.90;;;;;;4948490;28;20448;-54
2021/01/25 11:23:33;;;;;;;54.60;29.05;;;2.60;92.00;;;;;;4948046;28;20042;-55
2021/01/25 11:25:59;;;;;;;44.22;26.88;;;2.70;91.80;;;;;;4948229;28;20456;-54
2021/01/25 11:28:25;;;;;;;49.65;27.90;;;2.70;91.70;;;;;;4948628;28;20047;-51
2021/01/25 11:30:51;;;;;;;50.50;28.92;;;2.80;91.60;;;;;;4951607;28;20027;-54
2021/01/25 11:33:17;;;;;;;45.13;26.92;;;2.80;91.50;;;;;;4945991;28;20543;-55
2021/01/25 11:35:43;;;;;;;46.38;26.10;;;2.90;91.40;;;;;;4947535;28;20035;-54
2021/01/25 11:38:09;;;;;;;43.85;26.65;;;2.90;91.30;;;;;;4946709;28;20191;-54
2021/01/25 11:40:34;;;;;;;44.78;26.38;;;3.00;91.30;;;;;;4951331;28;20047;-54
2021/01/25 11:43:00;;;;;;;41.92;24.42;;;3.00;91.20;;;;;;4944841;28;20043;-54
2021/01/25 11:45:25;;;;;;;45.38;26.25;;;3.10;91.10;;;;;;4950994;28;20340;-50
2021/01/25 11:47:51;;;;;;;42.75;24.88;;;3.10;91.10;;;;;;4951575;28;20031;-53
2021/01/25 11:50:17;;;;;;;43.53;25.67;;;3.20;91.10;;;;;;4954821;28;20142;-53
2021/01/25 11:52:43;;;;;;;44.53;26.13;;;3.10;91.10;;;;;;4954226;28;20047;-54
2021/01/25 11:55:10;;;;;;;45.97;26.05;;;3.20;91.10;;;;;;4954866;28;20047;-54
2021/01/25 11:57:35;;;;;;;48.28;27.88;;;3.20;91.00;;;;;;4948026;28;20115;-51
2021/01/25 12:00:03;;;;;;;45.35;25.38;;;3.30;91.00;;;;;;4949398;28;20472;-52
2021/01/25 12:02:29;;;;;;;47.13;27.15;;;3.30;91.00;;;;;;4948187;28;20538;-53
2021/01/25 12:04:54;;;;;;;45.28;26.75;;;3.30;90.90;;;;;;4948849;28;20051;-53
2021/01/25 12:07:21;;;;;;;47.97;28.10;;;3.40;90.80;;;;;;4949393;28;20463;-51
2021/01/25 12:09:47;;;;;;;45.22;27.45;;;3.40;90.90;;;;;;4950876;28;20047;-53
2021/01/25 12:12:13;;;;;;;49.47;28.40;;;3.50;90.90;;;;;;4949338;28;20066;-53
2021/01/25 12:14:39;;;;;;;47.17;28.80;;;3.60;91.00;;;;;;4947891;28;20513;-55
2021/01/25 12:17:05;;;;;;;47.17;27.42;;;3.60;90.80;;;;;;4956567;28;20046;-53
2021/01/25 12:19:30;;;;;;;43.90;26.95;;;3.60;90.80;;;;;;4946423;28;20271;-50
2021/01/25 12:21:56;;;;;;;44.22;26.98;;;3.70;90.70;;;;;;4947550;28;20158;-53
2021/01/25 12:24:21;;;;;;;49.88;27.52;;;3.70;90.70;;;;;;4949009;28;20047;-54
2021/01/25 12:26:48;;;;;;;47.38;27.85;;;3.80;90.60;;;;;;4947900;28;20077;-55
2021/01/25 12:29:14;;;;;;;47.65;28.25;;;3.90;90.60;;;;;;4949829;28;20043;-55
2021/01/25 12:31:39;;;;;;;47.47;27.95;;;3.90;90.50;;;;;;4945398;28;20047;-54
2021/01/25 12:34:05;;;;;;;46.28;27.52;;;4.00;90.50;;;;;;4948954;28;20118;-52